Airfield :
LOGIN :

Register | Disclaimer

   EN    FR    IT 

 










Legend :    VFR   Marginal VFR   IFR   Intensive IFR   Very Intensive IFR
Visi :
Ceiling :
>= 8 km
>= 3000ft
5 to 8 km
1000 to 3000 ft
1500m to 5 km
500 to 1000 ft
800 to 1500m
200 to 500 ft
< 800m
< 200 ft
Symbols :   Thunderstorms  Fog  Heavy snow  Heavy precipitations  Wind > 20 kt
SIGMETs :     Misc.  Thunderstorms  Icing  Turbulence  Mountain Waves  Volcanic Ashes







- Airport Elevation : 55 ft
- Download approach charts


EGNO - Warton Preston

CURRENT METAR :
  • 191420Z 25026G36KT 9999 FEW023 BKN029 16/08 Q1004

EXPIRED METARs :
  • 191350Z 25025G36KT 9999 FEW021 BKN029 16/09 Q1004
  • 191320Z 26030G42KT 9999 FEW021 BKN030 17/09 Q1003
  • 191250Z 25030G43KT 7000 SCT027 17/10 Q1002
  • 191220Z 24028G43KT 7000 VCSH FEW015 BKN024 17/11 Q1001
  • 191150Z 24027G40KT 7000 -SHRA SCT015 BKN033 17/12 Q1000

TAF TAF EGNO
Valid from the 19 at 15:00 until the 19 at 18:00 UTC


191357Z 1915/1918 24025G35KT 9999 FEW015 SCT025
PROB30
TEMPO 1915/1916 24033G45KT 7000 SHRA BKN014
ATIS : +44 1772 856 060
No reported NOTAMs for that airfield.
4 SIGMETs reported for the London FIR (EGTT) :
 
Severe mountain waves
EGTT SIGMET 11 VALID 191300/191700 EGRR
EGTT LONDON FIR SEV MTW FCST WI N5311 E00322 - N5143 E00210 - N4947 W00545 - N5139 W00647 - N5220 W00530 - N5500 W00530 - N5500 W00100 - N5311 E00322 FL030/250 STNR NC=
Severe turbulence
EGTT SIGMET 10 VALID 191300/191700 EGRR
EGTT LONDON FIR SEV TURB FCST N OF N4958 AND E OF W00534 SFC/FL060 MOV ENE 40KT WKN=
SIGMET 08 cancelation
EGTT SIGMET 09 VALID 191245/191632 EGRR
EGTT LONDON FIR CNL SIGMET 08 191232/191632=
SIGMET 08  CANCELED :
Severe turbulence
EGTT SIGMET 08 VALID 191232/191632 EGRR
EGTT LONDON FIR SEV TURB FCST N OF N4955 AND E OF W00546 SFC/FL060 MOV ENE 40KT WKN=



MET'MAP, your aeronautical weather chart ! - Copyright ORBIFLY December 2007 - Disclaimer

ORBIFLY MET'MAP TEAM :

Programming & Development : Alexandra Zaïnal
Concept & Development : Baudouin d'Aumeries
Co-Development & Prog : Marc-Olivier Méhu
Technical & hardware support : Manuel Goepfert

Contact : metmap@orbifly.com




SOURCES & CREDITS :

   NOAA